Terminal Aerodrome Forecast
Issued by NWS Wilmington, OH

Home | Current Version | Previous Version | Text Only | Print | Product List | Glossary On
Versions: 1 2 3 4 5 6 7 8 9 10 11 12 13 14 15 16 17
509
FTUS41 KILN 291432 AAB
TAFCMH
TAF AMD
KCMH 291432Z 2915/3012 08009KT P6SM SCT022
     FM292300 07009KT P6SM BKN250=

USA.gov is the U.S. government's official web portal to all federal, state and local government web resources and services.